sim
Sign-in with your pilot id or email,
or register
Callsign
Passwort

Schedule Details

Flight Number: OEO0038
Departure: Lisbon Humberto Delgado Airport (LPPT) at 10:00
Arrival: Tromso Airport (ENTC) at 15:00
Route:

Weather Information
Getting current METAR information for LPPT 190230Z 24008KT 9999 FEW012 18/18 Q1014
Getting current METAR information for ENTC 190250Z 28013KT 8000 -RADZ FEW005 SCT028 BKN036 06/03 Q1008 RMK WIND 2600FT 31035G46KT

Schedule Frequency

Route Map